Time;durP1;ratioP1;P1;durP2;ratioP2;P2;SDS_P1;SDS_P2;PMS_P1;PMS_P2;Temp;Humidity;BMP_temperature;BMP_pressure;BME280_temperature;BME280_humidity;BME280_pressure;Samples;Min_cycle;Max_cycle;Signal;HPM_P1;HPM_P2
2024/01/05 00:00:58;;;;;;;;;;;19.80;59.50;;;;;;5021167;28;20015;-66
2024/01/05 00:03:23;;;;;;;;;;;19.70;59.40;;;;;;4997640;28;19933;-66
2024/01/05 00:05:48;;;;;;;;;;;19.70;59.40;;;;;;4998368;28;19969;-66
2024/01/05 00:08:14;;;;;;;;;;;19.70;59.40;;;;;;5009272;28;20364;-66
2024/01/05 00:10:40;;;;;;;;;;;19.70;59.40;;;;;;5035266;28;19933;-66
2024/01/05 00:13:05;;;;;;;;;;;19.70;59.40;;;;;;5035068;28;19929;-66
2024/01/05 00:15:31;;;;;;;;;;;19.70;59.40;;;;;;5016213;28;19932;-66
2024/01/05 00:17:56;;;;;;;;;;;19.70;59.40;;;;;;5017106;28;19980;-66
2024/01/05 00:20:22;;;;;;;;;;;19.70;59.30;;;;;;5034850;28;19925;-66
2024/01/05 00:22:47;;;;;;;;;;;19.60;59.30;;;;;;5034526;28;19932;-66
2024/01/05 00:25:15;;;;;;;;;;;19.60;59.30;;;;;;5028538;28;19929;-66
2024/01/05 00:27:41;;;;;;;;;;;19.60;59.30;;;;;;5015423;28;19925;-66
2024/01/05 00:30:06;;;;;;;;;;;19.60;59.30;;;;;;4996183;28;19932;-66
2024/01/05 00:32:32;;;;;;;;;;;19.60;59.30;;;;;;4998023;28;20340;-66
2024/01/05 00:34:57;;;;;;;;;;;19.60;59.20;;;;;;4997620;28;19933;-66
2024/01/05 00:37:23;;;;;;;;;;;19.60;59.30;;;;;;4996895;28;20343;-66
2024/01/05 00:39:48;;;;;;;;;;;19.60;59.20;;;;;;4997691;28;19925;-66
2024/01/05 00:42:14;;;;;;;;;;;19.60;59.10;;;;;;4997373;28;20443;-66
2024/01/05 00:44:40;;;;;;;;;;;19.50;59.10;;;;;;5014524;28;19932;-66
2024/01/05 00:47:06;;;;;;;;;;;19.50;59.10;;;;;;5014654;28;19929;-66
2024/01/05 00:49:31;;;;;;;;;;;19.50;59.10;;;;;;5014018;28;19949;-66
2024/01/05 00:51:57;;;;;;;;;;;19.50;59.10;;;;;;5013625;28;20300;-66
2024/01/05 00:54:22;;;;;;;;;;;19.50;59.10;;;;;;5015179;28;19964;-66
2024/01/05 00:56:48;;;;;;;;;;;19.50;59.10;;;;;;4997664;28;20296;-65
2024/01/05 00:59:13;;;;;;;;;;;19.50;59.10;;;;;;4997736;28;20291;-66
2024/01/05 01:01:39;;;;;;;;;;;19.50;59.10;;;;;;5014907;28;19925;-65
2024/01/05 01:04:04;;;;;;;;;;;19.50;59.10;;;;;;5014514;28;19925;-66
2024/01/05 01:06:29;;;;;;;;;;;19.50;59.10;;;;;;4996378;28;19925;-66
2024/01/05 01:08:55;;;;;;;;;;;19.50;59.10;;;;;;4998836;28;19930;-66
2024/01/05 01:11:22;;;;;;;;;;;19.50;59.10;;;;;;4997012;28;20296;-66
2024/01/05 01:13:48;;;;;;;;;;;19.50;59.00;;;;;;4996594;28;19929;-66
2024/01/05 01:16:13;;;;;;;;;;;19.40;59.00;;;;;;5014338;28;20285;-66
2024/01/05 01:18:39;;;;;;;;;;;19.40;59.00;;;;;;4996209;28;19933;-66
2024/01/05 01:21:04;;;;;;;;;;;19.40;58.90;;;;;;5013731;28;19926;-66
2024/01/05 01:23:30;;;;;;;;;;;19.40;59.00;;;;;;4996677;28;19925;-66
2024/01/05 01:25:55;;;;;;;;;;;19.40;59.00;;;;;;5013670;28;19930;-66
2024/01/05 01:28:21;;;;;;;;;;;19.40;58.90;;;;;;4996693;28;19925;-66
2024/01/05 01:30:46;;;;;;;;;;;19.40;59.00;;;;;;5014522;28;20282;-66
2024/01/05 01:33:11;;;;;;;;;;;19.40;59.00;;;;;;4996151;28;20022;-66
2024/01/05 01:35:37;;;;;;;;;;;19.30;58.90;;;;;;5014223;28;19925;-66
2024/01/05 01:38:02;;;;;;;;;;;19.30;58.90;;;;;;4995886;28;19987;-66
2024/01/05 01:40:28;;;;;;;;;;;19.30;58.90;;;;;;4995804;28;19925;-66
2024/01/05 01:42:53;;;;;;;;;;;19.30;58.90;;;;;;4996134;28;19926;-66
2024/01/05 01:45:19;;;;;;;;;;;19.30;58.80;;;;;;5013885;28;19971;-66
2024/01/05 01:47:44;;;;;;;;;;;19.30;58.90;;;;;;4995985;28;19932;-66
2024/01/05 01:50:10;;;;;;;;;;;19.30;58.80;;;;;;5013680;28;19933;-66
2024/01/05 01:52:39;;;;;;;;;;;19.30;58.80;;;;;;4996217;28;20425;-66
2024/01/05 01:55:05;;;;;;;;;;;19.30;58.80;;;;;;4995711;28;20012;-66
2024/01/05 01:57:30;;;;;;;;;;;19.30;58.90;;;;;;4979642;28;20461;-66
2024/01/05 01:59:56;;;;;;;;;;;19.30;58.90;;;;;;4996099;28;19930;-65
2024/01/05 02:02:21;;;;;;;;;;;19.20;58.80;;;;;;5015314;28;20007;-66
2024/01/05 02:04:47;;;;;;;;;;;19.20;58.80;;;;;;5035170;28;19925;-65
2024/01/05 02:07:12;;;;;;;;;;;19.20;58.80;;;;;;5015196;28;19976;-66
2024/01/05 02:09:38;;;;;;;;;;;19.20;58.80;;;;;;5032760;28;19925;-66
2024/01/05 02:12:04;;;;;;;;;;;19.20;58.80;;;;;;5015271;28;20396;-66
2024/01/05 02:14:30;;;;;;;;;;;19.20;58.80;;;;;;5015969;28;20404;-66
2024/01/05 02:16:55;;;;;;;;;;;19.20;58.80;;;;;;5013629;28;19929;-66
2024/01/05 02:19:21;;;;;;;;;;;19.20;58.80;;;;;;5015559;28;19925;-66
2024/01/05 02:21:47;;;;;;;;;;;19.20;58.80;;;;;;5032492;28;19925;-66
2024/01/05 02:24:12;;;;;;;;;;;19.10;58.70;;;;;;5015302;28;19925;-66
2024/01/05 02:26:39;;;;;;;;;;;19.10;58.70;;;;;;5033219;28;19925;-66
2024/01/05 02:29:04;;;;;;;;;;;19.10;58.70;;;;;;5032401;28;20311;-66
2024/01/05 02:31:30;;;;;;;;;;;19.10;58.70;;;;;;5015269;28;19925;-66
2024/01/05 02:33:55;;;;;;;;;;;19.10;58.70;;;;;;5032851;28;19929;-65
2024/01/05 02:36:21;;;;;;;;;;;19.10;58.60;;;;;;5032606;28;19932;-66
2024/01/05 02:38:46;;;;;;;;;;;19.10;58.70;;;;;;5015237;28;20433;-66
2024/01/05 02:41:12;;;;;;;;;;;19.10;58.60;;;;;;5015258;28;20009;-66
2024/01/05 02:43:37;;;;;;;;;;;19.10;58.60;;;;;;5015128;28;20011;-66
2024/01/05 02:46:03;;;;;;;;;;;19.10;58.70;;;;;;5032427;28;20332;-66
2024/01/05 02:48:28;;;;;;;;;;;19.00;58.60;;;;;;5015387;28;19979;-66
2024/01/05 02:50:56;;;;;;;;;;;19.00;58.60;;;;;;5014544;28;19925;-66
2024/01/05 02:53:22;;;;;;;;;;;19.00;58.60;;;;;;4996707;28;19925;-66
2024/01/05 02:55:47;;;;;;;;;;;19.00;58.50;;;;;;5013325;28;20012;-65
2024/01/05 02:58:13;;;;;;;;;;;19.00;58.50;;;;;;5027620;28;20015;-65
2024/01/05 03:00:38;;;;;;;;;;;19.00;58.50;;;;;;5022724;28;20435;-65
2024/01/05 03:03:04;;;;;;;;;;;19.00;58.50;;;;;;5012842;28;19929;-66
2024/01/05 03:05:30;;;;;;;;;;;19.00;58.50;;;;;;5012142;28;19932;-66
2024/01/05 03:07:55;;;;;;;;;;;19.00;58.50;;;;;;4995148;28;19930;-66
2024/01/05 03:10:21;;;;;;;;;;;19.00;58.60;;;;;;4995513;28;19951;-66
2024/01/05 03:12:48;;;;;;;;;;;19.00;58.50;;;;;;4995537;28;19925;-66
2024/01/05 03:15:14;;;;;;;;;;;19.00;58.60;;;;;;5016847;28;19925;-66
2024/01/05 03:17:39;;;;;;;;;;;18.90;58.50;;;;;;5036206;28;20023;-66
2024/01/05 03:20:05;;;;;;;;;;;18.90;58.50;;;;;;5034911;28;19925;-66
2024/01/05 03:22:30;;;;;;;;;;;18.90;58.50;;;;;;5018750;28;19975;-66
2024/01/05 03:24:56;;;;;;;;;;;18.90;58.50;;;;;;5018447;28;20019;-66
2024/01/05 03:27:21;;;;;;;;;;;18.90;58.50;;;;;;5035717;28;19932;-66
2024/01/05 03:29:47;;;;;;;;;;;18.90;58.50;;;;;;5036436;28;19929;-66
2024/01/05 03:32:12;;;;;;;;;;;18.90;58.60;;;;;;5035626;28;19925;-67
2024/01/05 03:34:38;;;;;;;;;;;18.90;58.50;;;;;;5018662;28;19925;-66
2024/01/05 03:37:03;;;;;;;;;;;18.90;58.60;;;;;;5035713;28;20273;-66
2024/01/05 03:39:29;;;;;;;;;;;18.90;58.60;;;;;;5018103;28;20000;-66
2024/01/05 03:41:54;;;;;;;;;;;18.90;58.60;;;;;;5017846;28;20304;-66
2024/01/05 03:44:20;;;;;;;;;;;18.90;58.60;;;;;;5036133;28;19925;-66
2024/01/05 03:46:52;;;;;;;;;;;18.90;58.60;;;;;;5035695;28;19936;-66
2024/01/05 03:49:17;;;;;;;;;;;18.90;58.50;;;;;;5018459;28;19929;-66
2024/01/05 03:51:43;;;;;;;;;;;18.90;58.60;;;;;;5018211;28;20395;-66
2024/01/05 03:54:08;;;;;;;;;;;18.90;58.60;;;;;;5035046;28;19925;-66
2024/01/05 03:56:37;;;;;;;;;;;18.90;58.50;;;;;;5018037;28;20396;-66
2024/01/05 03:59:03;;;;;;;;;;;18.90;58.50;;;;;;5035704;28;20019;-66
2024/01/05 04:01:28;;;;;;;;;;;18.90;58.50;;;;;;5013803;28;20017;-66
2024/01/05 04:03:54;;;;;;;;;;;18.90;58.50;;;;;;4996397;28;19956;-66
2024/01/05 04:06:19;;;;;;;;;;;18.90;58.50;;;;;;5016079;28;19979;-66
2024/01/05 04:08:45;;;;;;;;;;;19.00;58.50;;;;;;5015062;28;19930;-66
2024/01/05 04:11:16;;;;;;;;;;;19.00;58.50;;;;;;4997957;28;20435;-66
2024/01/05 04:13:42;;;;;;;;;;;19.00;58.50;;;;;;5014487;28;20285;-66
2024/01/05 04:16:07;;;;;;;;;;;19.00;58.50;;;;;;5014645;28;19937;-66
2024/01/05 04:18:33;;;;;;;;;;;19.00;58.50;;;;;;5015880;28;19921;-66
2024/01/05 04:20:58;;;;;;;;;;;19.00;58.40;;;;;;4997546;28;19930;-66
2024/01/05 04:23:24;;;;;;;;;;;19.00;58.40;;;;;;4996010;28;19979;-66
2024/01/05 04:25:49;;;;;;;;;;;19.00;58.40;;;;;;5015168;28;19926;-66
2024/01/05 04:28:15;;;;;;;;;;;19.10;58.40;;;;;;4997404;28;19925;-66
2024/01/05 04:30:40;;;;;;;;;;;19.10;58.50;;;;;;4996736;28;20000;-66
2024/01/05 04:33:06;;;;;;;;;;;19.10;58.40;;;;;;4997251;28;19929;-66
2024/01/05 04:35:31;;;;;;;;;;;19.10;58.40;;;;;;5013254;28;20046;-66
2024/01/05 04:37:57;;;;;;;;;;;19.10;58.40;;;;;;4996749;28;19932;-66
2024/01/05 04:40:22;;;;;;;;;;;19.10;58.30;;;;;;5014067;28;19932;-66
2024/01/05 04:42:48;;;;;;;;;;;19.20;58.40;;;;;;5013415;28;19926;-66
2024/01/05 04:45:14;;;;;;;;;;;19.20;58.40;;;;;;5014396;28;19931;-66
2024/01/05 04:47:40;;;;;;;;;;;19.20;58.30;;;;;;5014659;28;19926;-66
2024/01/05 04:50:06;;;;;;;;;;;19.20;58.40;;;;;;4997199;28;20349;-66
2024/01/05 04:52:34;;;;;;;;;;;19.20;58.30;;;;;;4997428;28;19926;-66
2024/01/05 04:54:59;;;;;;;;;;;19.20;58.30;;;;;;5014791;28;20331;-66
2024/01/05 04:57:25;;;;;;;;;;;19.30;58.30;;;;;;5014626;28;19921;-65
2024/01/05 04:59:50;;;;;;;;;;;19.30;58.30;;;;;;4997173;28;20373;-66
2024/01/05 05:02:15;;;;;;;;;;;19.30;58.30;;;;;;5012521;28;19929;-66
2024/01/05 05:04:41;;;;;;;;;;;19.30;58.30;;;;;;5033498;28;20432;-66
2024/01/05 05:07:06;;;;;;;;;;;19.30;58.30;;;;;;5032719;28;19925;-66
2024/01/05 05:09:32;;;;;;;;;;;19.30;58.20;;;;;;5033092;28;20034;-66
2024/01/05 05:11:57;;;;;;;;;;;19.40;58.30;;;;;;5033415;28;20392;-66
2024/01/05 05:14:23;;;;;;;;;;;19.40;58.20;;;;;;5016771;28;19929;-66
2024/01/05 05:16:49;;;;;;;;;;;19.40;58.20;;;;;;5034438;28;19925;-66
2024/01/05 05:19:14;;;;;;;;;;;19.40;58.30;;;;;;5015880;28;20292;-66
2024/01/05 05:21:40;;;;;;;;;;;19.40;58.20;;;;;;5016393;28;19925;-66
2024/01/05 05:24:05;;;;;;;;;;;19.40;58.20;;;;;;5016307;28;19925;-66
2024/01/05 05:26:30;;;;;;;;;;;19.40;58.20;;;;;;5033444;28;19925;-66
2024/01/05 05:28:56;;;;;;;;;;;19.50;58.20;;;;;;5033782;28;19935;-66
2024/01/05 05:31:21;;;;;;;;;;;19.50;58.20;;;;;;5015562;28;19928;-66
2024/01/05 05:33:47;;;;;;;;;;;19.50;58.30;;;;;;5015569;28;19926;-66
2024/01/05 05:36:12;;;;;;;;;;;19.50;58.20;;;;;;5033099;28;19995;-66
2024/01/05 05:38:38;;;;;;;;;;;19.50;58.20;;;;;;5033977;28;19933;-65
2024/01/05 05:41:03;;;;;;;;;;;19.50;58.20;;;;;;5032831;28;19929;-66
2024/01/05 05:43:29;;;;;;;;;;;19.50;58.20;;;;;;5034044;28;19929;-65
2024/01/05 05:45:55;;;;;;;;;;;19.50;58.20;;;;;;5015285;28;20376;-66
2024/01/05 05:48:20;;;;;;;;;;;19.50;58.10;;;;;;5015527;28;19926;-66
2024/01/05 05:50:46;;;;;;;;;;;19.60;58.10;;;;;;5016365;28;19937;-66
2024/01/05 05:53:11;;;;;;;;;;;19.60;58.10;;;;;;5015453;28;20386;-65
2024/01/05 05:55:37;;;;;;;;;;;19.60;58.10;;;;;;5015840;28;20296;-66
2024/01/05 05:58:03;;;;;;;;;;;19.60;58.10;;;;;;5033282;28;19925;-65
2024/01/05 06:00:28;;;;;;;;;;;19.60;58.10;;;;;;5015365;28;19980;-65
2024/01/05 06:02:54;;;;;;;;;;;19.60;58.00;;;;;;5032868;28;19931;-66
2024/01/05 06:05:19;;;;;;;;;;;19.60;58.00;;;;;;5016171;28;19932;-66
2024/01/05 06:07:45;;;;;;;;;;;19.60;58.00;;;;;;5015160;28;19926;-66
2024/01/05 06:10:11;;;;;;;;;;;19.60;58.00;;;;;;5015746;28;19925;-66
2024/01/05 06:12:36;;;;;;;;;;;19.70;58.00;;;;;;5033406;28;19936;-66
2024/01/05 06:15:02;;;;;;;;;;;19.70;58.00;;;;;;5032674;28;20328;-66
2024/01/05 06:17:27;;;;;;;;;;;19.70;58.00;;;;;;5032023;28;19925;-66
2024/01/05 06:19:53;;;;;;;;;;;19.70;58.00;;;;;;5013429;28;20345;-66
2024/01/05 06:22:18;;;;;;;;;;;19.70;58.00;;;;;;5031217;28;19925;-66
2024/01/05 06:24:47;;;;;;;;;;;19.70;57.90;;;;;;5015530;28;20311;-66
2024/01/05 06:27:12;;;;;;;;;;;19.70;58.00;;;;;;5033159;28;19929;-66
2024/01/05 06:29:38;;;;;;;;;;;19.70;58.00;;;;;;5014725;28;19925;-66
2024/01/05 06:32:04;;;;;;;;;;;19.70;58.00;;;;;;5015530;28;19925;-66
2024/01/05 06:34:29;;;;;;;;;;;19.70;57.90;;;;;;5033303;28;20372;-66
2024/01/05 06:36:55;;;;;;;;;;;19.80;58.00;;;;;;5032180;28;19929;-66
2024/01/05 06:39:20;;;;;;;;;;;19.80;58.10;;;;;;5015736;28;19925;-66
2024/01/05 06:41:46;;;;;;;;;;;19.70;57.90;;;;;;5033154;28;19936;-66
2024/01/05 06:44:11;;;;;;;;;;;19.80;58.00;;;;;;5032052;28;20403;-66
2024/01/05 06:46:37;;;;;;;;;;;19.80;58.00;;;;;;5015710;28;19932;-66
2024/01/05 06:49:03;;;;;;;;;;;19.80;58.00;;;;;;5017797;28;20392;-66
2024/01/05 06:51:29;;;;;;;;;;;19.80;58.00;;;;;;5037024;28;19925;-66
2024/01/05 06:53:56;;;;;;;;;;;19.80;57.90;;;;;;5033065;28;19921;-66
2024/01/05 06:56:21;;;;;;;;;;;19.80;57.90;;;;;;5036369;28;19933;-66
2024/01/05 06:58:47;;;;;;;;;;;19.80;57.90;;;;;;5032377;28;19921;-66
2024/01/05 07:01:13;;;;;;;;;;;19.80;57.90;;;;;;5013742;28;19925;-65
2024/01/05 07:03:38;;;;;;;;;;;19.80;57.90;;;;;;5014942;28;20005;-66
2024/01/05 07:06:04;;;;;;;;;;;19.80;57.80;;;;;;4999257;28;19932;-65
2024/01/05 07:08:29;;;;;;;;;;;19.80;57.90;;;;;;4999404;28;20373;-66
2024/01/05 07:10:55;;;;;;;;;;;19.90;57.90;;;;;;5015876;28;19976;-66
2024/01/05 07:13:20;;;;;;;;;;;19.90;57.90;;;;;;5017182;28;20373;-66
2024/01/05 07:15:46;;;;;;;;;;;19.90;57.90;;;;;;4999455;28;19979;-66
2024/01/05 07:18:11;;;;;;;;;;;19.90;58.50;;;;;;5016133;28;20757;-66
2024/01/05 07:20:37;;;;;;;;;;;19.90;57.80;;;;;;5017030;28;19965;-66
2024/01/05 07:23:02;;;;;;;;;;;19.90;57.80;;;;;;5016051;28;20380;-66
2024/01/05 07:25:28;;;;;;;;;;;19.90;57.80;;;;;;5016218;28;20361;-66
2024/01/05 07:27:53;;;;;;;;;;;19.90;57.80;;;;;;4999093;28;19926;-66
2024/01/05 07:30:19;;;;;;;;;;;19.90;57.80;;;;;;4999291;28;19925;-66
2024/01/05 07:32:45;;;;;;;;;;;19.90;57.80;;;;;;4998102;28;20296;-66
2024/01/05 07:35:11;;;;;;;;;;;19.90;57.80;;;;;;5016465;28;19925;-66
2024/01/05 07:37:37;;;;;;;;;;;19.90;57.80;;;;;;5016218;28;19979;-66
2024/01/05 07:40:03;;;;;;;;;;;19.90;57.80;;;;;;4997665;28;19932;-66
2024/01/05 07:42:30;;;;;;;;;;;19.90;58.50;;;;;;5016684;28;19925;-66
2024/01/05 07:44:57;;;;;;;;;;;19.90;57.80;;;;;;4998440;28;20067;-66
2024/01/05 07:47:23;;;;;;;;;;;19.90;57.80;;;;;;5015800;28;19932;-66
2024/01/05 07:49:49;;;;;;;;;;;19.90;57.70;;;;;;4999014;28;19926;-66
2024/01/05 07:52:14;;;;;;;;;;;19.90;57.80;;;;;;5015717;28;19969;-66
2024/01/05 07:54:40;;;;;;;;;;;20.00;57.80;;;;;;4997891;28;19932;-66
2024/01/05 07:57:07;;;;;;;;;;;20.00;57.80;;;;;;5016124;28;20019;-66
2024/01/05 07:59:33;;;;;;;;;;;20.00;57.80;;;;;;5014754;28;19930;-65
2024/01/05 08:01:58;;;;;;;;;;;20.00;57.80;;;;;;5015418;28;19996;-65
2024/01/05 08:04:23;;;;;;;;;;;20.00;57.70;;;;;;5015977;28;20004;-65
2024/01/05 08:06:50;;;;;;;;;;;20.00;57.70;;;;;;4997995;28;20269;-65
2024/01/05 08:09:15;;;;;;;;;;;20.00;57.70;;;;;;5013488;28;19965;-65
2024/01/05 08:11:41;;;;;;;;;;;20.00;57.70;;;;;;4998568;28;19973;-65
2024/01/05 08:14:09;;;;;;;;;;;20.00;57.70;;;;;;4997392;28;20406;-65
2024/01/05 08:16:35;;;;;;;;;;;20.00;57.70;;;;;;5015792;28;20389;-65
2024/01/05 08:19:01;;;;;;;;;;;20.00;57.70;;;;;;4997848;28;19973;-65
2024/01/05 08:21:26;;;;;;;;;;;20.00;57.70;;;;;;4997000;28;19929;-65
2024/01/05 08:23:52;;;;;;;;;;;20.00;57.70;;;;;;5015579;28;19925;-64
2024/01/05 08:26:18;;;;;;;;;;;20.00;57.70;;;;;;4998116;28;19925;-62
2024/01/05 08:28:43;;;;;;;;;;;20.00;57.70;;;;;;4997565;28;19926;-63
2024/01/05 08:31:09;;;;;;;;;;;20.00;57.70;;;;;;5015425;28;19925;-63
2024/01/05 08:33:34;;;;;;;;;;;20.00;57.70;;;;;;5015470;28;19929;-61
2024/01/05 08:36:00;;;;;;;;;;;20.00;57.80;;;;;;4996965;28;19948;-65
2024/01/05 08:38:25;;;;;;;;;;;20.00;57.90;;;;;;5015111;28;20303;-66
2024/01/05 08:40:52;;;;;;;;;;;20.00;58.00;;;;;;5015259;28;19932;-65
2024/01/05 08:43:18;;;;;;;;;;;20.10;58.20;;;;;;4996995;28;19933;-65
2024/01/05 08:45:44;;;;;;;;;;;20.00;58.20;;;;;;4997992;28;19925;-65
2024/01/05 08:48:11;;;;;;;;;;;20.10;58.30;;;;;;4997395;28;19925;-64
2024/01/05 08:50:37;;;;;;;;;;;20.10;58.30;;;;;;5026797;28;20284;-64
2024/01/05 08:53:02;;;;;;;;;;;20.10;58.40;;;;;;5016178;28;20384;-64
2024/01/05 08:55:28;;;;;;;;;;;20.10;58.60;;;;;;5034368;28;19964;-64
2024/01/05 08:57:53;;;;;;;;;;;20.10;58.60;;;;;;5015486;28;20012;-61
2024/01/05 09:00:19;;;;;;;;;;;20.10;58.70;;;;;;5015016;28;19932;-65
2024/01/05 09:02:44;;;;;;;;;;;20.10;58.70;;;;;;5014609;28;19925;-65
2024/01/05 09:05:10;;;;;;;;;;;20.10;58.80;;;;;;5016080;28;19940;-65
2024/01/05 09:07:35;;;;;;;;;;;20.20;58.90;;;;;;5034242;28;20019;-65
2024/01/05 09:10:01;;;;;;;;;;;20.10;58.90;;;;;;5011658;28;19929;-65
2024/01/05 09:12:27;;;;;;;;;;;20.20;59.00;;;;;;5014174;28;19937;-64
2024/01/05 09:14:52;;;;;;;;;;;20.20;59.10;;;;;;5014347;28;19925;-65
2024/01/05 09:17:18;;;;;;;;;;;20.20;59.10;;;;;;5012663;28;20006;-65
2024/01/05 09:19:44;;;;;;;;;;;20.20;59.10;;;;;;5014666;28;19979;-65
2024/01/05 09:22:10;;;;;;;;;;;20.20;59.20;;;;;;5013770;28;19947;-64
2024/01/05 09:24:35;;;;;;;;;;;20.20;59.20;;;;;;5013817;28;20293;-65
2024/01/05 09:27:04;;;;;;;;;;;20.20;59.90;;;;;;4996624;28;19922;-65
2024/01/05 09:29:32;;;;;;;;;;;20.20;59.20;;;;;;4996749;28;19925;-64
2024/01/05 09:31:58;;;;;;;;;;;20.20;59.20;;;;;;5013199;28;19922;-63
2024/01/05 09:34:23;;;;;;;;;;;20.20;59.30;;;;;;5014564;28;20016;-65
2024/01/05 09:36:49;;;;;;;;;;;20.20;59.30;;;;;;5013026;28;19935;-65
2024/01/05 09:39:15;;;;;;;;;;;20.20;59.30;;;;;;5028288;28;20380;-65
2024/01/05 09:41:41;;;;;;;;;;;20.20;59.40;;;;;;5015947;28;19932;-66
2024/01/05 09:44:06;;;;;;;;;;;20.20;59.40;;;;;;5015638;28;19952;-66
2024/01/05 09:46:33;;;;;;;;;;;20.20;59.30;;;;;;5032775;28;19925;-66
2024/01/05 09:49:01;;;;;;;;;;;20.20;59.10;;;;;;4999278;28;20388;-65
2024/01/05 09:51:29;;;;;;;;;;;20.20;59.30;;;;;;5033646;28;19929;-65
2024/01/05 09:53:54;;;;;;;;;;;20.20;59.30;;;;;;5015145;28;20007;-64
2024/01/05 09:56:20;;;;;;;;;;;20.20;59.40;;;;;;5015908;28;20017;-65
2024/01/05 09:58:45;;;;;;;;;;;20.20;59.40;;;;;;4999042;28;19975;-63
2024/01/05 10:01:14;;;;;;;;;;;20.10;59.40;;;;;;5032398;28;20408;-63
2024/01/05 10:03:40;;;;;;;;;;;20.10;59.30;;;;;;5033102;28;19933;-65
2024/01/05 10:06:05;;;;;;;;;;;20.10;59.30;;;;;;5014818;28;19976;-63
2024/01/05 10:08:31;;;;;;;;;;;20.10;59.30;;;;;;5014416;28;20536;-64
2024/01/05 10:10:58;;;;;;;;;;;20.10;59.20;;;;;;5032834;28;20445;-64
2024/01/05 10:13:24;;;;;;;;;;;20.10;59.20;;;;;;5015223;28;20299;-64
2024/01/05 10:15:59;;;;;;;;;;;20.10;59.20;;;;;;5019664;28;19925;-64
2024/01/05 10:18:25;;;;;;;;;;;20.10;59.20;;;;;;5026769;28;20284;-64
2024/01/05 10:20:51;;;;;;;;;;;20.10;59.20;;;;;;5014345;28;20364;-66
2024/01/05 10:23:16;;;;;;;;;;;20.00;59.20;;;;;;5014191;28;20392;-66
2024/01/05 10:25:42;;;;;;;;;;;20.00;59.30;;;;;;5014687;28;20384;-65
2024/01/05 10:28:18;;;;;;;;;;;20.10;59.40;;;;;;5031831;28;19929;-65
2024/01/05 10:30:44;;;;;;;;;;;20.10;59.50;;;;;;5032578;28;19947;-64
2024/01/05 10:33:10;;;;;;;;;;;20.10;59.50;;;;;;5032517;28;20299;-64
2024/01/05 10:35:35;;;;;;;;;;;20.10;59.50;;;;;;5032292;28;19925;-64
2024/01/05 10:38:11;;;;;;;;;;;20.00;59.40;;;;;;5032508;28;19926;-64
2024/01/05 10:40:36;;;;;;;;;;;20.00;59.50;;;;;;5032777;28;19925;-64
2024/01/05 10:43:11;;;;;;;;;;;20.00;59.50;;;;;;5014436;28;19925;-66
2024/01/05 10:45:37;;;;;;;;;;;20.00;59.60;;;;;;5033295;28;19921;-66
2024/01/05 10:48:04;;;;;;;;;;;20.00;59.40;;;;;;5014944;28;19975;-63
2024/01/05 10:50:30;;;;;;;;;;;20.00;59.60;;;;;;5015011;28;19925;-64
2024/01/05 10:52:57;;;;;;;;;;;20.00;59.60;;;;;;5015151;28;19975;-64
2024/01/05 10:55:22;;;;;;;;;;;20.00;59.90;;;;;;5032499;28;19925;-65
2024/01/05 10:57:47;;;;;;;;;;;20.00;60.00;;;;;;5029755;28;20290;-64
2024/01/05 11:00:13;;;;;;;;;;;20.00;59.90;;;;;;5031671;28;20008;-64
2024/01/05 11:02:40;;;;;;;;;;;20.00;60.00;;;;;;5032062;28;19925;-64
2024/01/05 11:05:07;;;;;;;;;;;20.00;60.00;;;;;;5014112;28;20387;-64
2024/01/05 11:07:33;;;;;;;;;;;20.00;60.00;;;;;;5032668;28;19925;-64
2024/01/05 11:10:17;;;;;;;;;;;20.00;60.10;;;;;;5031947;28;20423;-64
2024/01/05 11:12:46;;;;;;;;;;;20.00;60.00;;;;;;5032018;28;19925;-64
2024/01/05 11:15:25;;;;;;;;;;;20.00;60.10;;;;;;4997725;28;19935;-64
2024/01/05 11:18:09;;;;;;;;;;;20.00;60.10;;;;;;5029245;28;20012;-64
2024/01/05 11:20:53;;;;;;;;;;;20.00;60.10;;;;;;5009674;28;19972;-65
2024/01/05 11:23:19;;;;;;;;;;;20.00;60.20;;;;;;4990346;28;19926;-64
2024/01/05 11:25:45;;;;;;;;;;;20.00;60.20;;;;;;4992828;28;19933;-64
2024/01/05 11:28:30;;;;;;;;;;;20.00;60.10;;;;;;4991315;28;20373;-64
2024/01/05 11:30:55;;;;;;;;;;;20.00;60.00;;;;;;4990734;28;19949;-63
2024/01/05 11:33:40;;;;;;;;;;;20.00;60.00;;;;;;4992949;28;20361;-63
2024/01/05 11:36:06;;;;;;;;;;;20.00;60.00;;;;;;4994343;28;19926;-63
2024/01/05 11:38:31;;;;;;;;;;;20.00;60.00;;;;;;4995966;28;20404;-63
2024/01/05 11:40:57;;;;;;;;;;;20.00;60.00;;;;;;4994626;28;19930;-64
2024/01/05 11:43:28;;;;;;;;;;;19.90;60.00;;;;;;4979113;28;20084;-63
2024/01/05 11:45:54;;;;;;;;;;;19.90;60.00;;;;;;4995422;28;19928;-63
2024/01/05 11:48:34;;;;;;;;;;;19.90;60.00;;;;;;4995752;28;19925;-64
2024/01/05 11:51:03;;;;;;;;;;;19.90;60.00;;;;;;4996318;28;19973;-63
2024/01/05 11:53:28;;;;;;;;;;;19.90;60.10;;;;;;4995498;28;19988;-63
2024/01/05 11:55:56;;;;;;;;;;;19.90;60.10;;;;;;4990623;28;19926;-62
2024/01/05 11:58:22;;;;;;;;;;;19.90;60.60;;;;;;4995826;28;20412;-62
2024/01/05 12:00:48;;;;;;;;;;;19.90;60.00;;;;;;4988130;28;19926;-63
2024/01/05 12:03:14;;;;;;;;;;;19.90;60.10;;;;;;4976686;28;19926;-65
2024/01/05 12:05:39;;;;;;;;;;;19.90;60.10;;;;;;4990020;28;20357;-64
2024/01/05 12:08:05;;;;;;;;;;;19.90;60.10;;;;;;4995420;28;19926;-64
2024/01/05 12:10:31;;;;;;;;;;;19.90;60.20;;;;;;4995172;28;19967;-63
2024/01/05 12:12:56;;;;;;;;;;;19.90;60.10;;;;;;4995072;28;19926;-63
2024/01/05 12:15:22;;;;;;;;;;;19.90;60.30;;;;;;4995130;28;20549;-61
2024/01/05 12:17:48;;;;;;;;;;;19.90;60.20;;;;;;4993834;28;20389;-63
2024/01/05 12:20:14;;;;;;;;;;;19.90;60.10;;;;;;4989825;28;19926;-63
2024/01/05 12:22:39;;;;;;;;;;;19.90;60.10;;;;;;5026610;28;20378;-63
2024/01/05 12:25:05;;;;;;;;;;;19.90;60.10;;;;;;5033439;28;19931;-63
2024/01/05 12:27:37;;;;;;;;;;;19.80;60.10;;;;;;5034256;28;20008;-63
2024/01/05 12:30:03;;;;;;;;;;;19.90;60.10;;;;;;5016848;28;19925;-63
2024/01/05 12:32:31;;;;;;;;;;;19.90;60.10;;;;;;5017328;28;19932;-63
2024/01/05 12:34:56;;;;;;;;;;;19.80;60.70;;;;;;5016264;28;19921;-63
2024/01/05 12:37:23;;;;;;;;;;;19.90;60.10;;;;;;5016870;28;20008;-63
2024/01/05 12:39:48;;;;;;;;;;;19.90;60.20;;;;;;5034710;28;19928;-62
2024/01/05 12:42:14;;;;;;;;;;;19.80;60.10;;;;;;5033472;28;19929;-63
2024/01/05 12:44:39;;;;;;;;;;;19.90;60.20;;;;;;5034649;28;19933;-62
2024/01/05 12:47:05;;;;;;;;;;;19.90;60.20;;;;;;5034291;28;19986;-63
2024/01/05 12:49:30;;;;;;;;;;;19.90;60.20;;;;;;5015984;28;19925;-62
2024/01/05 12:51:56;;;;;;;;;;;19.90;60.20;;;;;;4996912;28;19925;-64
2024/01/05 12:54:22;;;;;;;;;;;19.90;60.20;;;;;;5014947;28;19996;-64
2024/01/05 12:56:48;;;;;;;;;;;19.90;60.20;;;;;;4996744;28;20307;-64
2024/01/05 12:59:20;;;;;;;;;;;19.90;60.10;;;;;;5014733;28;19937;-64
2024/01/05 13:01:45;;;;;;;;;;;19.90;60.10;;;;;;5014976;28;19932;-64
2024/01/05 13:04:11;;;;;;;;;;;19.90;60.10;;;;;;5014224;28;19929;-64
2024/01/05 13:06:37;;;;;;;;;;;19.90;60.10;;;;;;4997709;28;19975;-64
2024/01/05 13:09:02;;;;;;;;;;;20.00;60.10;;;;;;4995916;28;19926;-64
2024/01/05 13:11:28;;;;;;;;;;;20.00;60.10;;;;;;5014779;28;19921;-64
2024/01/05 13:13:53;;;;;;;;;;;20.00;60.10;;;;;;4997176;28;19984;-64
2024/01/05 13:16:19;;;;;;;;;;;20.00;60.10;;;;;;4996337;28;20023;-64
2024/01/05 13:18:44;;;;;;;;;;;19.90;60.00;;;;;;4997349;28;19967;-64
2024/01/05 13:21:10;;;;;;;;;;;20.00;60.10;;;;;;4993224;28;19976;-64
2024/01/05 13:23:35;;;;;;;;;;;20.00;60.10;;;;;;4994037;28;20020;-64
2024/01/05 13:26:01;;;;;;;;;;;20.00;60.10;;;;;;4993332;28;19929;-64
2024/01/05 13:28:27;;;;;;;;;;;20.00;60.00;;;;;;4993167;28;19976;-64
2024/01/05 13:30:52;;;;;;;;;;;20.00;60.10;;;;;;4993732;28;19922;-64
2024/01/05 13:33:18;;;;;;;;;;;20.00;60.10;;;;;;4994839;28;20403;-64
2024/01/05 13:35:43;;;;;;;;;;;20.00;60.10;;;;;;4994764;28;19932;-64
2024/01/05 13:38:09;;;;;;;;;;;20.00;60.10;;;;;;4993390;28;19921;-64
2024/01/05 13:40:40;;;;;;;;;;;20.00;60.10;;;;;;4993478;28;19926;-64
2024/01/05 13:43:05;;;;;;;;;;;20.00;60.20;;;;;;4994739;28;19933;-64
2024/01/05 13:45:34;;;;;;;;;;;20.00;60.40;;;;;;4991914;28;21439;-64
2024/01/05 13:47:59;;;;;;;;;;;20.10;60.60;;;;;;4993095;28;19932;-61
2024/01/05 13:50:25;;;;;;;;;;;20.10;61.30;;;;;;4993260;28;20016;-65
2024/01/05 13:52:50;;;;;;;;;;;20.10;60.50;;;;;;5018514;28;19925;-63
2024/01/05 13:55:16;;;;;;;;;;;20.10;60.50;;;;;;5024629;28;19925;-62
2024/01/05 13:57:41;;;;;;;;;;;20.10;60.40;;;;;;4999145;28;19971;-63
2024/01/05 14:00:07;;;;;;;;;;;20.10;60.40;;;;;;5011333;28;19925;-61
2024/01/05 14:02:33;;;;;;;;;;;20.10;60.40;;;;;;5012583;28;20452;-62
2024/01/05 14:04:59;;;;;;;;;;;20.10;60.40;;;;;;5013314;28;19930;-63
2024/01/05 14:07:24;;;;;;;;;;;20.10;60.40;;;;;;5012319;28;19925;-63
2024/01/05 14:09:50;;;;;;;;;;;20.10;60.50;;;;;;5013540;28;19932;-63